createdAt,value
2023-03-04T00:02:28.739Z,2.60
2023-03-04T00:05:31.770Z,2.57
2023-03-04T00:08:35.334Z,2.56
2023-03-04T00:11:38.417Z,2.54
2023-03-04T00:14:41.855Z,2.55
2023-03-04T00:17:46.812Z,2.54
2023-03-04T00:20:50.867Z,2.58
2023-03-04T00:23:53.941Z,2.56
2023-03-04T00:26:57.324Z,2.57
2023-03-04T00:30:00.340Z,2.58
2023-03-04T00:33:05.038Z,2.57
2023-03-04T00:36:09.398Z,2.59
2023-03-04T00:39:12.723Z,2.64
2023-03-04T00:42:15.727Z,2.62
2023-03-04T00:45:18.980Z,2.63
2023-03-04T00:48:24.155Z,2.65
2023-03-04T00:51:27.816Z,2.68
2023-03-04T00:54:30.844Z,2.66
2023-03-04T00:57:33.857Z,2.72
2023-03-04T01:00:37.023Z,2.69
2023-03-04T01:03:42.830Z,2.73
2023-03-04T01:06:46.861Z,2.73
2023-03-04T01:09:49.926Z,2.69
2023-03-04T01:12:53.040Z,2.72
2023-03-04T01:15:56.468Z,2.72
2023-03-04T01:19:00.854Z,2.75
2023-03-04T01:22:03.855Z,2.72
2023-03-04T01:25:09.162Z,2.73
2023-03-04T01:28:12.565Z,2.74
2023-03-04T01:31:17.587Z,2.77
2023-03-04T01:34:22.285Z,2.80
2023-03-04T01:37:25.502Z,2.82
2023-03-04T01:40:29.100Z,2.86
2023-03-04T01:43:33.730Z,2.89
2023-03-04T01:46:37.017Z,2.91
2023-03-04T01:49:41.621Z,2.95
2023-03-04T01:52:44.943Z,2.95
2023-03-04T01:55:48.424Z,2.99
2023-03-04T01:59:11.509Z,3.02
2023-03-04T02:02:15.142Z,3.06
2023-03-04T02:05:20.545Z,3.08
2023-03-04T02:08:26.093Z,3.15
2023-03-04T02:11:29.604Z,3.18
2023-03-04T02:14:32.859Z,3.21
2023-03-04T02:17:36.560Z,3.23
2023-03-04T02:20:52.263Z,3.28
2023-03-04T02:24:05.097Z,3.30
2023-03-04T02:27:10.424Z,3.37
2023-03-04T02:30:18.373Z,3.37
2023-03-04T02:33:21.653Z,3.42
2023-03-04T02:36:26.171Z,3.43
2023-03-04T02:39:34.055Z,3.46
2023-03-04T02:42:38.517Z,3.47
2023-03-04T02:45:46.132Z,3.52
2023-03-04T02:48:49.761Z,3.57
2023-03-04T02:51:54.000Z,3.59
2023-03-04T02:54:57.415Z,3.65
2023-03-04T02:58:03.422Z,3.66
2023-03-04T03:01:06.981Z,3.67
2023-03-04T03:04:10.190Z,3.71
2023-03-04T03:07:13.482Z,3.73
2023-03-04T03:10:16.797Z,3.75
2023-03-04T03:13:21.430Z,3.77
2023-03-04T03:16:25.046Z,3.79
2023-03-04T03:19:29.555Z,3.81
2023-03-04T03:22:32.872Z,3.80
2023-03-04T03:25:35.923Z,3.83
2023-03-04T03:28:40.960Z,3.84
2023-03-04T03:31:44.033Z,3.83
2023-03-04T03:34:47.909Z,3.83
2023-03-04T03:37:50.938Z,3.83
2023-03-04T03:40:54.023Z,3.82
2023-03-04T03:43:58.310Z,3.83
2023-03-04T03:47:01.378Z,3.86
2023-03-04T03:50:05.884Z,3.87
2023-03-04T03:53:09.070Z,3.86
2023-03-04T03:56:13.200Z,3.87
2023-03-04T03:59:17.544Z,3.90
2023-03-04T04:02:20.658Z,3.91
2023-03-04T04:05:23.818Z,3.91
2023-03-04T04:08:26.857Z,3.92
2023-03-04T04:11:30.133Z,3.94
2023-03-04T04:14:35.289Z,3.96
2023-03-04T04:17:38.555Z,3.97
2023-03-04T04:20:41.825Z,3.99
2023-03-04T04:23:44.827Z,3.99
2023-03-04T04:26:47.889Z,4.01
2023-03-04T04:29:52.364Z,4.03
2023-03-04T04:32:58.421Z,4.11
2023-03-04T04:36:03.618Z,4.11
2023-03-04T04:39:06.800Z,4.13
2023-03-04T04:42:11.332Z,4.14
2023-03-04T04:45:15.875Z,4.13
2023-03-04T04:48:18.973Z,4.14
2023-03-04T04:51:21.945Z,4.04
2023-03-04T04:54:25.595Z,4.06
2023-03-04T04:57:28.597Z,4.06
2023-03-04T05:00:32.965Z,4.02
2023-03-04T05:03:38.367Z,4.02
2023-03-04T05:06:41.721Z,4.02
2023-03-04T05:09:45.900Z,4.02
2023-03-04T05:12:49.820Z,4.00
2023-03-04T05:15:55.294Z,4.04
2023-03-04T05:18:58.363Z,4.05
2023-03-04T05:22:01.400Z,4.09
2023-03-04T05:25:05.571Z,4.09
2023-03-04T05:28:12.383Z,4.14
2023-03-04T05:31:20.183Z,4.15
2023-03-04T05:34:23.224Z,4.16
2023-03-04T05:37:26.228Z,4.19
2023-03-04T05:40:35.421Z,4.22
2023-03-04T05:43:42.698Z,4.25
2023-03-04T05:46:47.131Z,4.28
2023-03-04T05:49:50.452Z,4.31
2023-03-04T05:52:54.163Z,4.31
2023-03-04T05:55:59.261Z,4.36
2023-03-04T05:59:02.696Z,4.36
2023-03-04T06:02:07.172Z,4.34
2023-03-04T06:05:14.943Z,4.32
2023-03-04T06:08:18.139Z,4.31
2023-03-04T06:11:21.759Z,4.31
2023-03-04T06:14:25.985Z,4.33
2023-03-04T06:17:33.939Z,4.31
2023-03-04T06:20:37.629Z,4.34
2023-03-04T06:23:41.996Z,4.35
2023-03-04T06:26:45.162Z,4.32
2023-03-04T06:29:48.192Z,4.35
2023-03-04T06:32:52.509Z,4.36
2023-03-04T06:35:57.515Z,4.40
2023-03-04T06:39:00.656Z,4.43
2023-03-04T06:42:04.221Z,4.39
2023-03-04T06:45:09.222Z,4.39
2023-03-04T06:48:14.875Z,4.36
2023-03-04T06:51:18.142Z,4.38
2023-03-04T06:54:21.561Z,4.38
2023-03-04T06:57:24.621Z,4.41
2023-03-04T07:00:27.849Z,4.39
2023-03-04T07:03:32.184Z,4.37
2023-03-04T07:06:35.207Z,4.38
2023-03-04T07:09:38.751Z,4.32
2023-03-04T07:12:41.910Z,4.35
2023-03-04T07:15:44.892Z,4.32
2023-03-04T07:18:49.499Z,4.34
2023-03-04T07:21:52.546Z,4.34
2023-03-04T07:24:55.716Z,4.30
2023-03-04T07:27:58.755Z,4.31
2023-03-04T07:31:12.240Z,4.29
2023-03-04T07:34:16.906Z,4.29
2023-03-04T07:37:19.950Z,4.33
2023-03-04T07:40:23.814Z,4.38
2023-03-04T07:43:27.147Z,4.45
2023-03-04T07:46:30.540Z,4.49
2023-03-04T07:49:34.838Z,4.53
2023-03-04T07:52:39.778Z,4.54
2023-03-04T07:55:42.779Z,4.54
2023-03-04T07:58:46.420Z,4.55
2023-03-04T08:01:49.624Z,4.59
2023-03-04T08:04:53.954Z,4.64
2023-03-04T08:07:57.993Z,4.69
2023-03-04T08:11:01.243Z,4.73
2023-03-04T08:14:04.947Z,4.75
2023-03-04T08:17:08.632Z,4.78
2023-03-04T08:20:14.365Z,4.84
2023-03-04T08:23:17.416Z,4.85
2023-03-04T08:26:24.137Z,4.88
2023-03-04T08:29:28.230Z,4.91
2023-03-04T08:32:31.643Z,4.90
2023-03-04T08:35:39.433Z,4.94
2023-03-04T08:38:43.158Z,4.92
2023-03-04T08:41:47.910Z,4.99
2023-03-04T08:44:51.107Z,5.02
2023-03-04T08:47:54.080Z,5.09
2023-03-04T08:50:58.643Z,5.12
2023-03-04T08:54:02.085Z,5.18
2023-03-04T08:57:07.752Z,5.21
2023-03-04T09:00:12.930Z,5.29
2023-03-04T09:03:18.960Z,5.34
2023-03-04T09:06:23.520Z,5.43
2023-03-04T09:09:26.811Z,5.47
2023-03-04T09:12:29.828Z,5.56
2023-03-04T09:15:35.604Z,5.58
2023-03-04T09:18:39.732Z,5.69
2023-03-04T09:21:44.074Z,5.73
2023-03-04T09:24:47.068Z,5.77
2023-03-04T09:27:50.114Z,5.84
2023-03-04T09:30:53.132Z,5.89
2023-03-04T09:34:00.579Z,5.86
2023-03-04T09:37:05.063Z,5.83
2023-03-04T09:40:12.501Z,5.84
2023-03-04T09:43:23.730Z,5.80
2023-03-04T09:46:35.585Z,5.80
2023-03-04T09:49:42.282Z,5.77
2023-03-04T09:53:07.665Z,5.87
2023-03-04T09:56:13.040Z,5.96
2023-03-04T09:59:25.541Z,5.93
2023-03-04T10:02:45.810Z,5.96
2023-03-04T10:05:56.304Z,6.08
2023-03-04T10:09:04.254Z,6.08
2023-03-04T10:12:13.647Z,6.14
2023-03-04T10:15:35.547Z,6.07
2023-03-04T10:18:42.317Z,6.07
2023-03-04T10:21:48.902Z,6.07
2023-03-04T10:24:54.893Z,6.17
2023-03-04T10:28:02.529Z,6.26
2023-03-04T10:31:13.323Z,6.24
2023-03-04T10:34:20.065Z,6.16
2023-03-04T10:37:23.427Z,6.16
2023-03-04T10:40:27.796Z,6.19
2023-03-04T10:43:32.081Z,6.25
2023-03-04T10:46:39.445Z,6.28
2023-03-04T10:49:53.285Z,6.36
2023-03-04T10:52:57.664Z,6.49
2023-03-04T10:56:03.110Z,6.33
2023-03-04T10:59:31.994Z,6.26
2023-03-04T11:02:37.172Z,6.20
2023-03-04T11:05:40.280Z,6.22
2023-03-04T11:08:43.584Z,6.19
2023-03-04T11:11:48.228Z,6.20
2023-03-04T11:14:53.192Z,6.23
2023-03-04T11:18:00.635Z,6.20
2023-03-04T11:21:03.859Z,6.24
2023-03-04T11:24:28.174Z,6.33
2023-03-04T11:27:42.362Z,6.31
2023-03-04T11:30:51.464Z,6.37
2023-03-04T11:33:59.254Z,6.39
2023-03-04T11:37:07.643Z,6.35
2023-03-04T11:40:15.326Z,6.38
2023-03-04T11:43:24.644Z,6.41
2023-03-04T11:46:58.860Z,6.52
2023-03-04T11:50:23.749Z,6.53
2023-03-04T11:53:39.077Z,6.52
2023-03-04T11:56:48.893Z,6.48
2023-03-04T12:00:13.912Z,6.42
2023-03-04T12:03:35.762Z,6.36
2023-03-04T12:06:51.473Z,6.31
2023-03-04T12:10:05.684Z,6.32
2023-03-04T12:13:32.505Z,6.22
2023-03-04T12:17:04.940Z,6.19
2023-03-04T12:20:37.876Z,6.18
2023-03-04T12:24:19.207Z,6.25
2023-03-04T12:27:29.237Z,6.25
2023-03-04T12:31:01.423Z,6.34
2023-03-04T12:34:31.800Z,6.42
2023-03-04T12:37:50.180Z,6.52
2023-03-04T12:41:04.228Z,6.59
2023-03-04T12:44:19.325Z,6.56
2023-03-04T12:47:33.195Z,6.44
2023-03-04T12:50:52.386Z,6.37
2023-03-04T12:54:09.483Z,6.33
2023-03-04T12:57:16.335Z,6.30
2023-03-04T13:00:33.964Z,6.30
2023-03-04T13:03:45.757Z,6.37
2023-03-04T13:07:00.912Z,6.38
2023-03-04T13:10:12.176Z,6.46
2023-03-04T13:13:39.944Z,6.50
2023-03-04T13:16:45.949Z,6.43
2023-03-04T13:19:52.996Z,6.38
2023-03-04T13:22:59.459Z,6.36
2023-03-04T13:26:37.057Z,6.37
2023-03-04T13:29:42.341Z,6.29
2023-03-04T13:32:45.304Z,6.32
2023-03-04T13:36:01.957Z,6.29
2023-03-04T13:39:29.690Z,6.22
2023-03-04T13:42:42.373Z,6.20
2023-03-04T13:45:47.042Z,6.16
2023-03-04T13:49:04.236Z,6.18
2023-03-04T13:52:40.902Z,6.22
2023-03-04T13:55:46.697Z,6.15
2023-03-04T13:58:52.405Z,6.17
2023-03-04T14:02:02.272Z,6.06
2023-03-04T14:05:06.733Z,6.04
2023-03-04T14:08:19.943Z,6.04
2023-03-04T14:11:31.513Z,6.00
2023-03-04T14:14:43.609Z,6.01
2023-03-04T14:17:51.275Z,6.00
2023-03-04T14:20:58.945Z,6.01
2023-03-04T14:24:07.591Z,6.01
2023-03-04T14:27:15.123Z,5.95
2023-03-04T14:30:40.724Z,5.96
2023-03-04T14:33:50.538Z,5.90
2023-03-04T14:36:54.123Z,5.82
2023-03-04T14:39:59.627Z,5.81
2023-03-04T14:43:07.625Z,5.82
2023-03-04T14:46:16.079Z,5.80
2023-03-04T14:49:19.178Z,5.82
2023-03-04T14:52:35.300Z,5.79
2023-03-04T14:55:38.300Z,5.78
2023-03-04T14:58:54.831Z,5.79
2023-03-04T15:02:22.408Z,5.71
2023-03-04T15:05:28.744Z,5.68
2023-03-04T15:08:37.072Z,5.66
2023-03-04T15:11:48.690Z,5.63
2023-03-04T15:14:56.479Z,5.62
2023-03-04T15:18:00.818Z,5.61
2023-03-04T15:21:07.218Z,5.65
2023-03-04T15:24:13.596Z,5.66
2023-03-04T15:27:17.087Z,5.68
2023-03-04T15:30:27.476Z,5.73
2023-03-04T15:33:30.550Z,5.66
2023-03-04T15:36:33.914Z,5.70
2023-03-04T15:39:37.026Z,5.71
2023-03-04T15:42:40.357Z,5.62
2023-03-04T15:45:45.177Z,5.64
2023-03-04T15:48:49.318Z,5.66
2023-03-04T15:51:53.597Z,5.66
2023-03-04T15:54:56.734Z,5.67
2023-03-04T15:58:01.177Z,5.66
2023-03-04T16:01:06.598Z,5.66
2023-03-04T16:04:12.928Z,5.65
2023-03-04T16:07:19.854Z,5.58
2023-03-04T16:10:28.063Z,5.55
2023-03-04T16:13:31.327Z,5.53
2023-03-04T16:16:35.734Z,5.47
2023-03-04T16:19:38.818Z,5.52
2023-03-04T16:22:43.947Z,5.47
2023-03-04T16:25:49.528Z,5.41
2023-03-04T16:28:53.800Z,5.38
2023-03-04T16:31:58.233Z,5.37
2023-03-04T16:35:02.283Z,5.33
2023-03-04T16:38:07.291Z,5.29
2023-03-04T16:41:15.157Z,5.29
2023-03-04T16:44:18.226Z,5.32
2023-03-04T16:47:23.337Z,5.29
2023-03-04T16:50:30.198Z,5.29
2023-03-04T16:53:37.740Z,5.27
2023-03-04T16:56:40.812Z,5.28
2023-03-04T16:59:45.790Z,5.26
2023-03-04T17:02:56.949Z,5.27
2023-03-04T17:06:00.226Z,5.23
2023-03-04T17:09:03.288Z,5.21
2023-03-04T17:12:08.000Z,5.23
2023-03-04T17:15:13.280Z,5.21
2023-03-04T17:18:17.600Z,5.22
2023-03-04T17:21:24.236Z,5.20
2023-03-04T17:24:28.144Z,5.19
2023-03-04T17:27:31.779Z,5.17
2023-03-04T17:30:34.792Z,5.17
2023-03-04T17:33:39.549Z,5.16
2023-03-04T17:36:42.669Z,5.15
2023-03-04T17:39:45.695Z,5.15
2023-03-04T17:42:48.721Z,5.16
2023-03-04T17:45:51.723Z,5.13
2023-03-04T17:48:59.141Z,5.10
2023-03-04T17:52:04.390Z,5.10
2023-03-04T17:55:09.097Z,5.10
2023-03-04T17:58:13.030Z,5.07
2023-03-04T18:01:19.753Z,5.07
2023-03-04T18:04:24.694Z,5.07
2023-03-04T18:07:28.939Z,5.05
2023-03-04T18:10:32.722Z,5.06
2023-03-04T18:13:38.155Z,5.03
2023-03-04T18:16:42.054Z,4.98
2023-03-04T18:19:46.729Z,4.97
2023-03-04T18:22:49.768Z,4.97
2023-03-04T18:25:52.885Z,4.94
2023-03-04T18:28:57.428Z,4.95
2023-03-04T18:32:01.436Z,4.92
2023-03-04T18:35:07.439Z,4.91
2023-03-04T18:38:10.475Z,4.91
2023-03-04T18:41:15.521Z,4.87
2023-03-04T18:44:18.512Z,4.85
2023-03-04T18:47:22.481Z,4.88
2023-03-04T18:50:26.858Z,4.83
2023-03-04T18:53:31.065Z,4.84
2023-03-04T18:56:39.851Z,4.83
2023-03-04T18:59:47.572Z,4.80
2023-03-04T19:02:55.469Z,4.80
2023-03-04T19:06:00.221Z,4.78
2023-03-04T19:09:09.332Z,4.75
2023-03-04T19:12:12.493Z,4.72
2023-03-04T19:15:16.281Z,4.71
2023-03-04T19:18:19.443Z,4.74
2023-03-04T19:21:23.779Z,4.74
2023-03-04T19:24:26.803Z,4.73
2023-03-04T19:27:29.787Z,4.74
2023-03-04T19:30:33.065Z,4.75
2023-03-04T19:33:37.332Z,4.74
2023-03-04T19:36:41.647Z,4.70
2023-03-04T19:39:44.901Z,4.68
2023-03-04T19:42:48.001Z,4.70
2023-03-04T19:45:56.287Z,4.73
2023-03-04T19:48:59.961Z,4.72
2023-03-04T19:52:04.365Z,4.70
2023-03-04T19:55:10.073Z,4.67
2023-03-04T19:58:13.420Z,4.66
2023-03-04T20:01:21.932Z,4.63
2023-03-04T20:04:25.367Z,4.63
2023-03-04T20:07:29.777Z,4.58
2023-03-04T20:10:36.548Z,4.55
2023-03-04T20:13:40.289Z,4.55
2023-03-04T20:16:43.501Z,4.55
2023-03-04T20:19:48.047Z,4.50
2023-03-04T20:22:52.393Z,4.52
2023-03-04T20:25:56.793Z,4.47
2023-03-04T20:29:00.035Z,4.43
2023-03-04T20:32:03.645Z,4.42
2023-03-04T20:35:08.000Z,4.29
2023-03-04T20:38:12.648Z,4.30
2023-03-04T20:41:16.652Z,4.31
2023-03-04T20:44:19.733Z,4.15
2023-03-04T20:47:22.933Z,4.13
2023-03-04T20:50:26.664Z,4.13
2023-03-04T20:53:30.981Z,4.11
2023-03-04T20:56:35.031Z,4.07
2023-03-04T20:59:40.464Z,4.06
2023-03-04T21:02:43.432Z,4.03
2023-03-04T21:05:46.424Z,3.99
2023-03-04T21:08:50.790Z,3.97
2023-03-04T21:11:54.651Z,3.94
2023-03-04T21:14:57.785Z,3.95
2023-03-04T21:18:00.878Z,3.92
2023-03-04T21:21:10.747Z,3.90
2023-03-04T21:24:18.377Z,3.83
2023-03-04T21:27:21.588Z,3.88
2023-03-04T21:30:24.663Z,3.84
2023-03-04T21:33:36.445Z,3.80
2023-03-04T21:36:39.451Z,3.73
2023-03-04T21:42:51.748Z,3.74
2023-03-04T21:45:56.834Z,3.74
2023-03-04T21:48:59.942Z,3.76
2023-03-04T21:52:03.667Z,3.70
2023-03-04T21:55:09.409Z,3.70
2023-03-04T21:58:12.410Z,3.76
2023-03-04T22:01:18.551Z,3.71
2023-03-04T22:04:21.630Z,3.77
2023-03-04T22:07:24.688Z,3.73
2023-03-04T22:10:28.985Z,3.74
2023-03-04T22:13:32.052Z,3.75
2023-03-04T22:16:39.897Z,3.84
2023-03-04T22:19:51.790Z,3.80
2023-03-04T22:22:54.774Z,3.86
2023-03-04T22:26:03.368Z,3.86
2023-03-04T22:29:07.553Z,3.90
2023-03-04T22:32:10.543Z,3.97
2023-03-04T22:35:13.873Z,3.95
2023-03-04T22:38:17.288Z,3.94
2023-03-04T22:41:23.062Z,3.86
2023-03-04T22:44:26.442Z,3.93
2023-03-04T22:47:29.415Z,3.87
2023-03-04T22:50:32.518Z,3.90
2023-03-04T22:53:36.036Z,3.87
2023-03-04T22:56:40.425Z,3.87
2023-03-04T22:59:43.498Z,3.88
2023-03-04T23:02:46.944Z,3.87
2023-03-04T23:05:50.000Z,3.83
2023-03-04T23:08:53.607Z,3.78
2023-03-04T23:11:58.001Z,3.82
2023-03-04T23:15:01.118Z,3.79
2023-03-04T23:18:05.103Z,3.74
2023-03-04T23:21:08.522Z,3.74
2023-03-04T23:24:13.288Z,3.72
2023-03-04T23:27:17.645Z,3.76
2023-03-04T23:30:20.684Z,3.75
2023-03-04T23:33:23.676Z,3.76
2023-03-04T23:36:29.805Z,3.74
2023-03-04T23:39:33.201Z,3.70
2023-03-04T23:42:39.742Z,3.68
2023-03-04T23:45:42.816Z,3.61
2023-03-04T23:48:46.643Z,3.63
2023-03-04T23:51:49.680Z,3.61
2023-03-04T23:54:52.770Z,3.59
2023-03-04T23:57:57.080Z,3.51
